sensor_id;sensor_type;location;lat;lon;timestamp;temperature;humidity
79760;DHT22;70512;42.122;24.732;2023-07-13T00:00:40;27.00;56.40
79760;DHT22;70512;42.122;24.732;2023-07-13T00:03:07;26.90;57.00
79760;DHT22;70512;42.122;24.732;2023-07-13T00:05:34;26.80;57.10
79760;DHT22;70512;42.122;24.732;2023-07-13T00:08:01;26.80;57.00
79760;DHT22;70512;42.122;24.732;2023-07-13T00:10:28;26.80;56.90
79760;DHT22;70512;42.122;24.732;2023-07-13T00:12:55;26.80;57.10
79760;DHT22;70512;42.122;24.732;2023-07-13T00:15:23;26.80;57.40
79760;DHT22;70512;42.122;24.732;2023-07-13T00:17:54;26.80;56.60
79760;DHT22;70512;42.122;24.732;2023-07-13T00:20:21;26.70;57.10
79760;DHT22;70512;42.122;24.732;2023-07-13T00:22:51;26.80;57.20
79760;DHT22;70512;42.122;24.732;2023-07-13T00:25:20;26.80;57.00
79760;DHT22;70512;42.122;24.732;2023-07-13T00:27:47;26.70;56.80
79760;DHT22;70512;42.122;24.732;2023-07-13T00:30:17;26.70;57.10
79760;DHT22;70512;42.122;24.732;2023-07-13T00:32:44;26.60;57.00
79760;DHT22;70512;42.122;24.732;2023-07-13T00:35:12;26.70;56.70
79760;DHT22;70512;42.122;24.732;2023-07-13T00:37:39;26.60;56.60
79760;DHT22;70512;42.122;24.732;2023-07-13T00:40:06;26.60;56.50
79760;DHT22;70512;42.122;24.732;2023-07-13T00:42:34;26.60;56.40
79760;DHT22;70512;42.122;24.732;2023-07-13T00:47:32;26.50;56.30
79760;DHT22;70512;42.122;24.732;2023-07-13T00:49:59;26.50;56.20
79760;DHT22;70512;42.122;24.732;2023-07-13T00:52:26;26.50;56.00
79760;DHT22;70512;42.122;24.732;2023-07-13T00:54:54;26.50;56.10
79760;DHT22;70512;42.122;24.732;2023-07-13T00:57:21;26.50;55.90
79760;DHT22;70512;42.122;24.732;2023-07-13T00:59:52;26.50;56.10
79760;DHT22;70512;42.122;24.732;2023-07-13T01:02:16;26.40;55.80
79760;DHT22;70512;42.122;24.732;2023-07-13T01:04:44;26.40;55.60
79760;DHT22;70512;42.122;24.732;2023-07-13T01:07:11;26.40;55.40
79760;DHT22;70512;42.122;24.732;2023-07-13T01:09:38;26.40;55.60
79760;DHT22;70512;42.122;24.732;2023-07-13T01:12:06;26.40;55.30
79760;DHT22;70512;42.122;24.732;2023-07-13T01:14:33;26.40;55.00
79760;DHT22;70512;42.122;24.732;2023-07-13T01:17:00;26.40;55.60
79760;DHT22;70512;42.122;24.732;2023-07-13T01:19:41;26.40;55.50
79760;DHT22;70512;42.122;24.732;2023-07-13T01:22:09;26.40;54.90
79760;DHT22;70512;42.122;24.732;2023-07-13T01:24:35;26.40;54.80
79760;DHT22;70512;42.122;24.732;2023-07-13T01:27:03;26.30;55.10
79760;DHT22;70512;42.122;24.732;2023-07-13T01:29:32;26.20;55.40
79760;DHT22;70512;42.122;24.732;2023-07-13T01:31:59;26.20;55.80
79760;DHT22;70512;42.122;24.732;2023-07-13T01:34:27;26.10;56.80
79760;DHT22;70512;42.122;24.732;2023-07-13T01:36:53;26.10;56.40
79760;DHT22;70512;42.122;24.732;2023-07-13T01:39:21;26.00;56.30
79760;DHT22;70512;42.122;24.732;2023-07-13T01:41:48;26.00;56.60
79760;DHT22;70512;42.122;24.732;2023-07-13T01:44:15;26.00;56.80
79760;DHT22;70512;42.122;24.732;2023-07-13T01:46:41;25.90;57.00
79760;DHT22;70512;42.122;24.732;2023-07-13T01:49:08;25.90;56.80
79760;DHT22;70512;42.122;24.732;2023-07-13T01:51:35;25.90;56.60
79760;DHT22;70512;42.122;24.732;2023-07-13T01:54:02;25.90;56.60
79760;DHT22;70512;42.122;24.732;2023-07-13T01:56:29;25.90;56.50
79760;DHT22;70512;42.122;24.732;2023-07-13T01:58:56;25.80;56.60
79760;DHT22;70512;42.122;24.732;2023-07-13T02:01:22;25.80;56.60
79760;DHT22;70512;42.122;24.732;2023-07-13T02:03:49;25.80;56.50
79760;DHT22;70512;42.122;24.732;2023-07-13T02:06:17;25.80;56.70
79760;DHT22;70512;42.122;24.732;2023-07-13T02:08:44;25.80;56.50
79760;DHT22;70512;42.122;24.732;2023-07-13T02:11:11;25.80;56.60
79760;DHT22;70512;42.122;24.732;2023-07-13T02:13:38;25.80;56.50
79760;DHT22;70512;42.122;24.732;2023-07-13T02:16:05;25.80;56.70
79760;DHT22;70512;42.122;24.732;2023-07-13T02:18:32;25.70;56.70
79760;DHT22;70512;42.122;24.732;2023-07-13T02:20:59;25.70;56.80
79760;DHT22;70512;42.122;24.732;2023-07-13T02:23:26;25.70;57.00
79760;DHT22;70512;42.122;24.732;2023-07-13T02:25:56;25.60;57.10
79760;DHT22;70512;42.122;24.732;2023-07-13T02:28:23;25.60;57.20
79760;DHT22;70512;42.122;24.732;2023-07-13T02:30:50;25.50;57.40
79760;DHT22;70512;42.122;24.732;2023-07-13T02:33:17;25.50;57.60
79760;DHT22;70512;42.122;24.732;2023-07-13T02:35:44;25.50;57.40
79760;DHT22;70512;42.122;24.732;2023-07-13T02:38:11;25.50;57.50
79760;DHT22;70512;42.122;24.732;2023-07-13T02:40:37;25.50;57.50
79760;DHT22;70512;42.122;24.732;2023-07-13T02:43:04;25.50;57.40
79760;DHT22;70512;42.122;24.732;2023-07-13T02:45:31;25.50;57.40
79760;DHT22;70512;42.122;24.732;2023-07-13T02:47:58;25.50;57.40
79760;DHT22;70512;42.122;24.732;2023-07-13T02:50:25;25.50;57.20
79760;DHT22;70512;42.122;24.732;2023-07-13T02:52:52;25.50;57.20
79760;DHT22;70512;42.122;24.732;2023-07-13T02:55:18;25.40;57.40
79760;DHT22;70512;42.122;24.732;2023-07-13T02:57:45;25.40;57.40
79760;DHT22;70512;42.122;24.732;2023-07-13T03:00:12;25.30;57.30
79760;DHT22;70512;42.122;24.732;2023-07-13T03:02:41;25.30;57.40
79760;DHT22;70512;42.122;24.732;2023-07-13T03:05:08;25.30;57.40
79760;DHT22;70512;42.122;24.732;2023-07-13T03:07:37;25.30;56.90
79760;DHT22;70512;42.122;24.732;2023-07-13T03:10:04;25.30;56.90
79760;DHT22;70512;42.122;24.732;2023-07-13T03:12:32;25.30;56.90
79760;DHT22;70512;42.122;24.732;2023-07-13T03:14:59;25.20;56.90
79760;DHT22;70512;42.122;24.732;2023-07-13T03:17:26;25.30;57.20
79760;DHT22;70512;42.122;24.732;2023-07-13T03:19:52;25.30;57.00
79760;DHT22;70512;42.122;24.732;2023-07-13T03:22:20;25.30;57.00
79760;DHT22;70512;42.122;24.732;2023-07-13T03:24:47;25.30;56.90
79760;DHT22;70512;42.122;24.732;2023-07-13T03:27:15;25.20;57.10
79760;DHT22;70512;42.122;24.732;2023-07-13T03:29:42;25.20;57.00
79760;DHT22;70512;42.122;24.732;2023-07-13T03:32:09;25.30;56.70
79760;DHT22;70512;42.122;24.732;2023-07-13T03:34:36;25.40;56.50
79760;DHT22;70512;42.122;24.732;2023-07-13T03:37:03;25.40;56.10
79760;DHT22;70512;42.122;24.732;2023-07-13T03:39:30;25.50;56.00
79760;DHT22;70512;42.122;24.732;2023-07-13T03:41:57;25.60;55.80
79760;DHT22;70512;42.122;24.732;2023-07-13T03:44:23;25.60;55.60
79760;DHT22;70512;42.122;24.732;2023-07-13T03:46:50;25.70;55.60
79760;DHT22;70512;42.122;24.732;2023-07-13T03:49:17;25.70;55.40
79760;DHT22;70512;42.122;24.732;2023-07-13T03:51:44;25.70;55.30
79760;DHT22;70512;42.122;24.732;2023-07-13T03:54:11;25.70;55.20
79760;DHT22;70512;42.122;24.732;2023-07-13T03:56:38;25.80;55.40
79760;DHT22;70512;42.122;24.732;2023-07-13T03:59:04;25.80;55.30
79760;DHT22;70512;42.122;24.732;2023-07-13T04:01:31;25.80;55.00
79760;DHT22;70512;42.122;24.732;2023-07-13T04:03:58;25.80;55.00
79760;DHT22;70512;42.122;24.732;2023-07-13T04:06:29;25.90;55.10
79760;DHT22;70512;42.122;24.732;2023-07-13T04:08:57;25.90;55.50
79760;DHT22;70512;42.122;24.732;2023-07-13T04:11:25;25.80;55.50
79760;DHT22;70512;42.122;24.732;2023-07-13T04:13:52;25.80;55.60
79760;DHT22;70512;42.122;24.732;2023-07-13T04:16:19;25.70;55.70
79760;DHT22;70512;42.122;24.732;2023-07-13T04:18:47;25.80;55.50
79760;DHT22;70512;42.122;24.732;2023-07-13T04:21:14;25.80;55.70
79760;DHT22;70512;42.122;24.732;2023-07-13T04:23:41;25.80;55.70
79760;DHT22;70512;42.122;24.732;2023-07-13T04:26:08;25.70;56.10
79760;DHT22;70512;42.122;24.732;2023-07-13T04:28:36;25.70;56.10
79760;DHT22;70512;42.122;24.732;2023-07-13T04:31:02;25.70;56.10
79760;DHT22;70512;42.122;24.732;2023-07-13T04:33:30;25.70;56.10
79760;DHT22;70512;42.122;24.732;2023-07-13T04:35:57;25.80;55.90
79760;DHT22;70512;42.122;24.732;2023-07-13T04:38:27;25.80;56.20
79760;DHT22;70512;42.122;24.732;2023-07-13T04:40:57;25.70;56.30
79760;DHT22;70512;42.122;24.732;2023-07-13T04:43:24;25.70;56.50
79760;DHT22;70512;42.122;24.732;2023-07-13T04:45:52;25.70;56.30
79760;DHT22;70512;42.122;24.732;2023-07-13T04:48:19;25.80;56.20
79760;DHT22;70512;42.122;24.732;2023-07-13T04:50:46;25.90;56.10
79760;DHT22;70512;42.122;24.732;2023-07-13T04:53:13;25.90;55.80
79760;DHT22;70512;42.122;24.732;2023-07-13T04:55:40;26.00;55.70
79760;DHT22;70512;42.122;24.732;2023-07-13T04:58:07;26.10;55.20
79760;DHT22;70512;42.122;24.732;2023-07-13T05:00:34;26.20;54.60
79760;DHT22;70512;42.122;24.732;2023-07-13T05:03:01;26.30;54.50
79760;DHT22;70512;42.122;24.732;2023-07-13T05:05:27;26.30;54.70
79760;DHT22;70512;42.122;24.732;2023-07-13T05:07:54;26.20;54.70
79760;DHT22;70512;42.122;24.732;2023-07-13T05:10:21;26.30;54.90
79760;DHT22;70512;42.122;24.732;2023-07-13T05:12:49;26.40;55.50
79760;DHT22;70512;42.122;24.732;2023-07-13T05:15:16;26.50;54.60
79760;DHT22;70512;42.122;24.732;2023-07-13T05:17:45;26.60;54.30
79760;DHT22;70512;42.122;24.732;2023-07-13T05:20:12;26.70;53.80
79760;DHT22;70512;42.122;24.732;2023-07-13T05:22:39;26.70;53.70
79760;DHT22;70512;42.122;24.732;2023-07-13T05:25:06;26.70;53.50
79760;DHT22;70512;42.122;24.732;2023-07-13T05:27:34;26.70;53.90
79760;DHT22;70512;42.122;24.732;2023-07-13T05:30:01;26.70;53.50
79760;DHT22;70512;42.122;24.732;2023-07-13T05:32:28;26.70;53.80
79760;DHT22;70512;42.122;24.732;2023-07-13T05:34:55;26.80;53.60
79760;DHT22;70512;42.122;24.732;2023-07-13T05:37:22;26.80;53.50
79760;DHT22;70512;42.122;24.732;2023-07-13T05:39:49;26.80;53.50
79760;DHT22;70512;42.122;24.732;2023-07-13T05:42:16;26.90;53.60
79760;DHT22;70512;42.122;24.732;2023-07-13T05:44:42;26.90;54.20
79760;DHT22;70512;42.122;24.732;2023-07-13T05:47:09;27.00;53.90
79760;DHT22;70512;42.122;24.732;2023-07-13T05:49:36;27.00;53.40
79760;DHT22;70512;42.122;24.732;2023-07-13T05:52:03;27.10;52.70
79760;DHT22;70512;42.122;24.732;2023-07-13T05:54:30;27.20;52.80
79760;DHT22;70512;42.122;24.732;2023-07-13T05:56:57;27.30;52.40
79760;DHT22;70512;42.122;24.732;2023-07-13T05:59:24;27.30;52.50
79760;DHT22;70512;42.122;24.732;2023-07-13T06:01:51;27.40;52.20
79760;DHT22;70512;42.122;24.732;2023-07-13T06:04:19;27.50;52.40
79760;DHT22;70512;42.122;24.732;2023-07-13T06:06:47;27.50;52.10
79760;DHT22;70512;42.122;24.732;2023-07-13T06:09:14;27.60;52.20
79760;DHT22;70512;42.122;24.732;2023-07-13T06:11:41;27.70;51.60
79760;DHT22;70512;42.122;24.732;2023-07-13T06:14:09;27.70;50.90
79760;DHT22;70512;42.122;24.732;2023-07-13T06:16:35;27.80;50.20
79760;DHT22;70512;42.122;24.732;2023-07-13T06:19:02;27.80;50.40
79760;DHT22;70512;42.122;24.732;2023-07-13T06:21:29;27.90;50.50
79760;DHT22;70512;42.122;24.732;2023-07-13T06:23:56;28.00;50.20
79760;DHT22;70512;42.122;24.732;2023-07-13T06:26:23;28.10;49.50
79760;DHT22;70512;42.122;24.732;2023-07-13T06:28:50;28.20;48.90
79760;DHT22;70512;42.122;24.732;2023-07-13T06:31:17;28.20;48.70
79760;DHT22;70512;42.122;24.732;2023-07-13T06:33:43;28.30;48.40
79760;DHT22;70512;42.122;24.732;2023-07-13T06:36:10;28.40;48.20
79760;DHT22;70512;42.122;24.732;2023-07-13T06:38:37;28.50;48.30
79760;DHT22;70512;42.122;24.732;2023-07-13T06:41:05;28.60;48.10
79760;DHT22;70512;42.122;24.732;2023-07-13T06:43:32;28.80;48.00
79760;DHT22;70512;42.122;24.732;2023-07-13T06:45:59;28.90;46.90
79760;DHT22;70512;42.122;24.732;2023-07-13T06:48:27;29.00;46.20
79760;DHT22;70512;42.122;24.732;2023-07-13T06:50:54;29.00;45.90
79760;DHT22;70512;42.122;24.732;2023-07-13T06:53:21;29.10;45.80
79760;DHT22;70512;42.122;24.732;2023-07-13T06:55:48;29.20;45.30
79760;DHT22;70512;42.122;24.732;2023-07-13T06:58:16;29.30;45.10
79760;DHT22;70512;42.122;24.732;2023-07-13T07:00:43;29.40;44.70
79760;DHT22;70512;42.122;24.732;2023-07-13T07:03:10;29.50;44.10
79760;DHT22;70512;42.122;24.732;2023-07-13T07:05:37;29.60;44.90
79760;DHT22;70512;42.122;24.732;2023-07-13T07:08:05;29.60;44.80
79760;DHT22;70512;42.122;24.732;2023-07-13T07:10:32;29.80;45.00
79760;DHT22;70512;42.122;24.732;2023-07-13T07:12:59;29.80;45.30
79760;DHT22;70512;42.122;24.732;2023-07-13T07:15:26;29.90;45.20
79760;DHT22;70512;42.122;24.732;2023-07-13T07:17:53;30.00;45.30
79760;DHT22;70512;42.122;24.732;2023-07-13T07:20:20;30.10;45.20
79760;DHT22;70512;42.122;24.732;2023-07-13T07:22:47;30.10;45.10
79760;DHT22;70512;42.122;24.732;2023-07-13T07:25:14;30.30;44.50
79760;DHT22;70512;42.122;24.732;2023-07-13T07:27:41;30.30;44.70
79760;DHT22;70512;42.122;24.732;2023-07-13T07:30:08;30.50;44.00
79760;DHT22;70512;42.122;24.732;2023-07-13T07:32:35;30.40;43.10
79760;DHT22;70512;42.122;24.732;2023-07-13T07:35:02;30.50;42.80
79760;DHT22;70512;42.122;24.732;2023-07-13T07:37:29;30.60;43.00
79760;DHT22;70512;42.122;24.732;2023-07-13T07:39:55;30.80;42.20
79760;DHT22;70512;42.122;24.732;2023-07-13T07:42:22;30.80;42.40
79760;DHT22;70512;42.122;24.732;2023-07-13T07:44:49;31.00;42.00
79760;DHT22;70512;42.122;24.732;2023-07-13T07:47:16;31.00;41.20
79760;DHT22;70512;42.122;24.732;2023-07-13T07:49:43;31.10;41.50
79760;DHT22;70512;42.122;24.732;2023-07-13T07:52:10;31.30;41.50
79760;DHT22;70512;42.122;24.732;2023-07-13T07:54:37;31.40;40.70
79760;DHT22;70512;42.122;24.732;2023-07-13T07:57:03;31.60;40.70
79760;DHT22;70512;42.122;24.732;2023-07-13T07:59:30;31.50;40.40
79760;DHT22;70512;42.122;24.732;2023-07-13T08:01:57;31.70;40.50
79760;DHT22;70512;42.122;24.732;2023-07-13T08:04:24;31.80;40.30
79760;DHT22;70512;42.122;24.732;2023-07-13T08:06:52;31.90;40.40
79760;DHT22;70512;42.122;24.732;2023-07-13T08:09:19;31.90;40.40
79760;DHT22;70512;42.122;24.732;2023-07-13T08:11:45;32.10;40.40
79760;DHT22;70512;42.122;24.732;2023-07-13T08:14:13;32.20;40.80
79760;DHT22;70512;42.122;24.732;2023-07-13T08:16:40;32.30;39.70
79760;DHT22;70512;42.122;24.732;2023-07-13T08:19:07;32.40;38.90
79760;DHT22;70512;42.122;24.732;2023-07-13T08:21:33;32.60;38.60
79760;DHT22;70512;42.122;24.732;2023-07-13T08:24:01;32.70;38.70
79760;DHT22;70512;42.122;24.732;2023-07-13T08:26:28;32.70;37.50
79760;DHT22;70512;42.122;24.732;2023-07-13T08:28:55;32.80;37.50
79760;DHT22;70512;42.122;24.732;2023-07-13T08:31:21;32.90;37.70
79760;DHT22;70512;42.122;24.732;2023-07-13T08:33:49;33.00;37.80
79760;DHT22;70512;42.122;24.732;2023-07-13T08:36:17;33.10;37.10
79760;DHT22;70512;42.122;24.732;2023-07-13T08:38:44;33.10;36.50
79760;DHT22;70512;42.122;24.732;2023-07-13T08:41:16;33.10;36.70
79760;DHT22;70512;42.122;24.732;2023-07-13T08:43:44;33.30;36.70
79760;DHT22;70512;42.122;24.732;2023-07-13T08:46:19;33.40;36.60
79760;DHT22;70512;42.122;24.732;2023-07-13T08:48:52;33.50;36.20
79760;DHT22;70512;42.122;24.732;2023-07-13T08:54:01;33.70;35.50
79760;DHT22;70512;42.122;24.732;2023-07-13T08:56:30;34.00;35.60
79760;DHT22;70512;42.122;24.732;2023-07-13T08:58:57;34.00;34.70
79760;DHT22;70512;42.122;24.732;2023-07-13T09:04:02;34.20;34.20
79760;DHT22;70512;42.122;24.732;2023-07-13T09:06:29;34.20;34.50
79760;DHT22;70512;42.122;24.732;2023-07-13T09:08:59;34.40;34.00
79760;DHT22;70512;42.122;24.732;2023-07-13T09:11:29;34.40;33.80
79760;DHT22;70512;42.122;24.732;2023-07-13T09:16:29;34.60;33.00
79760;DHT22;70512;42.122;24.732;2023-07-13T09:18:58;34.70;33.00
79760;DHT22;70512;42.122;24.732;2023-07-13T09:21:31;34.80;31.90
79760;DHT22;70512;42.122;24.732;2023-07-13T09:24:00;35.00;31.60
79760;DHT22;70512;42.122;24.732;2023-07-13T09:26:28;35.10;31.40
79760;DHT22;70512;42.122;24.732;2023-07-13T09:29:13;35.10;30.90
79760;DHT22;70512;42.122;24.732;2023-07-13T09:31:42;35.20;29.70
79760;DHT22;70512;42.122;24.732;2023-07-13T09:34:11;35.30;29.50
79760;DHT22;70512;42.122;24.732;2023-07-13T09:36:38;35.50;29.10
79760;DHT22;70512;42.122;24.732;2023-07-13T09:44:16;35.80;28.50
79760;DHT22;70512;42.122;24.732;2023-07-13T09:46:45;35.90;28.80
79760;DHT22;70512;42.122;24.732;2023-07-13T09:49:12;36.10;28.50
79760;DHT22;70512;42.122;24.732;2023-07-13T09:51:42;36.10;27.90
79760;DHT22;70512;42.122;24.732;2023-07-13T09:54:20;36.30;28.00
79760;DHT22;70512;42.122;24.732;2023-07-13T09:56:47;36.30;27.40
79760;DHT22;70512;42.122;24.732;2023-07-13T09:59:20;36.50;27.50
79760;DHT22;70512;42.122;24.732;2023-07-13T10:01:48;36.60;27.20
79760;DHT22;70512;42.122;24.732;2023-07-13T10:04:21;36.50;27.50
79760;DHT22;70512;42.122;24.732;2023-07-13T10:06:44;36.70;27.50
79760;DHT22;70512;42.122;24.732;2023-07-13T10:09:15;36.80;27.00
79760;DHT22;70512;42.122;24.732;2023-07-13T10:11:42;36.90;26.70
79760;DHT22;70512;42.122;24.732;2023-07-13T10:14:14;37.10;25.90
79760;DHT22;70512;42.122;24.732;2023-07-13T10:16:41;37.30;25.80
79760;DHT22;70512;42.122;24.732;2023-07-13T10:19:23;37.40;26.10
79760;DHT22;70512;42.122;24.732;2023-07-13T10:24:37;37.50;26.60
79760;DHT22;70512;42.122;24.732;2023-07-13T10:29:34;37.70;24.80
79760;DHT22;70512;42.122;24.732;2023-07-13T10:32:01;37.80;24.90
79760;DHT22;70512;42.122;24.732;2023-07-13T10:34:28;37.90;24.40
79760;DHT22;70512;42.122;24.732;2023-07-13T10:36:57;38.10;24.60
79760;DHT22;70512;42.122;24.732;2023-07-13T10:39:26;38.20;24.40
79760;DHT22;70512;42.122;24.732;2023-07-13T10:41:58;38.50;24.60
79760;DHT22;70512;42.122;24.732;2023-07-13T10:44:29;38.70;24.50
79760;DHT22;70512;42.122;24.732;2023-07-13T10:47:02;38.80;23.70
79760;DHT22;70512;42.122;24.732;2023-07-13T10:49:24;38.70;23.80
79760;DHT22;70512;42.122;24.732;2023-07-13T10:51:53;38.70;23.80
79760;DHT22;70512;42.122;24.732;2023-07-13T10:57:14;38.80;24.00
79760;DHT22;70512;42.122;24.732;2023-07-13T10:59:42;38.90;23.80
79760;DHT22;70512;42.122;24.732;2023-07-13T11:02:13;39.00;23.80
79760;DHT22;70512;42.122;24.732;2023-07-13T11:04:40;39.20;23.60
79760;DHT22;70512;42.122;24.732;2023-07-13T11:07:17;39.30;23.40
79760;DHT22;70512;42.122;24.732;2023-07-13T11:09:40;39.50;23.20
79760;DHT22;70512;42.122;24.732;2023-07-13T11:12:10;39.70;22.70
79760;DHT22;70512;42.122;24.732;2023-07-13T11:14:42;40.00;22.80
79760;DHT22;70512;42.122;24.732;2023-07-13T11:18:12;40.30;21.50
79760;DHT22;70512;42.122;24.732;2023-07-13T11:19:47;40.30;21.70
79760;DHT22;70512;42.122;24.732;2023-07-13T11:22:16;40.70;21.30
79760;DHT22;70512;42.122;24.732;2023-07-13T11:24:56;41.70;20.90
79760;DHT22;70512;42.122;24.732;2023-07-13T11:27:37;43.80;19.30
79760;DHT22;70512;42.122;24.732;2023-07-13T11:29:48;45.80;18.10
79760;DHT22;70512;42.122;24.732;2023-07-13T11:32:24;47.70;16.90
79760;DHT22;70512;42.122;24.732;2023-07-13T11:34:47;49.30;15.80
79760;DHT22;70512;42.122;24.732;2023-07-13T11:37:15;50.20;15.00
79760;DHT22;70512;42.122;24.732;2023-07-13T11:39:43;50.80;14.70
79760;DHT22;70512;42.122;24.732;2023-07-13T11:42:15;51.50;14.10
79760;DHT22;70512;42.122;24.732;2023-07-13T11:44:46;52.80;14.00
79760;DHT22;70512;42.122;24.732;2023-07-13T11:47:19;53.00;13.50
79760;DHT22;70512;42.122;24.732;2023-07-13T11:49:51;53.00;13.30
79760;DHT22;70512;42.122;24.732;2023-07-13T11:52:22;54.00;13.60
79760;DHT22;70512;42.122;24.732;2023-07-13T11:54:57;55.20;13.00
79760;DHT22;70512;42.122;24.732;2023-07-13T11:57:32;55.80;12.60
79760;DHT22;70512;42.122;24.732;2023-07-13T12:00:09;56.30;12.70
79760;DHT22;70512;42.122;24.732;2023-07-13T12:02:32;56.50;11.60
79760;DHT22;70512;42.122;24.732;2023-07-13T12:05:00;56.20;11.80
79760;DHT22;70512;42.122;24.732;2023-07-13T12:07:28;56.80;11.60
79760;DHT22;70512;42.122;24.732;2023-07-13T12:10:30;56.70;11.10
79760;DHT22;70512;42.122;24.732;2023-07-13T12:12:30;57.40;11.30
79760;DHT22;70512;42.122;24.732;2023-07-13T12:14:57;57.30;11.40
79760;DHT22;70512;42.122;24.732;2023-07-13T12:17:24;58.20;11.40
79760;DHT22;70512;42.122;24.732;2023-07-13T12:19:52;58.60;11.00
79760;DHT22;70512;42.122;24.732;2023-07-13T12:22:19;56.90;11.10
79760;DHT22;70512;42.122;24.732;2023-07-13T12:24:48;57.10;11.40
79760;DHT22;70512;42.122;24.732;2023-07-13T12:27:20;58.30;11.10
79760;DHT22;70512;42.122;24.732;2023-07-13T12:29:56;58.60;10.90
79760;DHT22;70512;42.122;24.732;2023-07-13T12:32:17;57.50;10.70
79760;DHT22;70512;42.122;24.732;2023-07-13T12:34:54;58.70;10.90
79760;DHT22;70512;42.122;24.732;2023-07-13T12:37:22;58.90;10.80
79760;DHT22;70512;42.122;24.732;2023-07-13T12:39:49;59.10;10.70
79760;DHT22;70512;42.122;24.732;2023-07-13T12:42:23;58.70;11.00
79760;DHT22;70512;42.122;24.732;2023-07-13T12:44:56;58.80;10.80
79760;DHT22;70512;42.122;24.732;2023-07-13T12:47:23;58.80;11.10
79760;DHT22;70512;42.122;24.732;2023-07-13T12:49:56;59.90;10.80
79760;DHT22;70512;42.122;24.732;2023-07-13T12:52:23;59.80;10.60
79760;DHT22;70512;42.122;24.732;2023-07-13T12:54:54;59.60;10.60
79760;DHT22;70512;42.122;24.732;2023-07-13T12:57:25;60.40;10.40
79760;DHT22;70512;42.122;24.732;2023-07-13T12:59:52;61.00;10.50
79760;DHT22;70512;42.122;24.732;2023-07-13T13:02:26;61.50;10.60
79760;DHT22;70512;42.122;24.732;2023-07-13T13:04:51;61.70;10.40
79760;DHT22;70512;42.122;24.732;2023-07-13T13:07:18;61.50;10.20
79760;DHT22;70512;42.122;24.732;2023-07-13T13:09:46;61.00;10.00
79760;DHT22;70512;42.122;24.732;2023-07-13T13:12:13;59.20;10.60
79760;DHT22;70512;42.122;24.732;2023-07-13T13:14:41;60.10;10.60
79760;DHT22;70512;42.122;24.732;2023-07-13T13:17:22;59.50;10.80
79760;DHT22;70512;42.122;24.732;2023-07-13T13:19:45;60.40;10.60
79760;DHT22;70512;42.122;24.732;2023-07-13T13:22:12;61.20;10.20
79760;DHT22;70512;42.122;24.732;2023-07-13T13:24:39;61.30;10.00
79760;DHT22;70512;42.122;24.732;2023-07-13T13:27:13;59.90;9.70
79760;DHT22;70512;42.122;24.732;2023-07-13T13:29:36;58.10;10.80
79760;DHT22;70512;42.122;24.732;2023-07-13T13:32:03;55.10;11.70
79760;DHT22;70512;42.122;24.732;2023-07-13T13:34:31;53.90;12.30
79760;DHT22;70512;42.122;24.732;2023-07-13T13:36:58;53.20;12.20
79760;DHT22;70512;42.122;24.732;2023-07-13T13:39:28;52.70;12.50
79760;DHT22;70512;42.122;24.732;2023-07-13T13:41:53;52.20;12.90
79760;DHT22;70512;42.122;24.732;2023-07-13T13:44:21;50.60;13.00
79760;DHT22;70512;42.122;24.732;2023-07-13T13:46:53;50.10;12.80
79760;DHT22;70512;42.122;24.732;2023-07-13T13:49:17;49.70;13.10
79760;DHT22;70512;42.122;24.732;2023-07-13T13:51:45;48.80;13.90
79760;DHT22;70512;42.122;24.732;2023-07-13T13:54:15;48.40;14.30
79760;DHT22;70512;42.122;24.732;2023-07-13T13:56:42;48.50;14.10
79760;DHT22;70512;42.122;24.732;2023-07-13T13:59:10;49.00;13.80
79760;DHT22;70512;42.122;24.732;2023-07-13T14:01:37;49.80;13.80
79760;DHT22;70512;42.122;24.732;2023-07-13T14:04:04;50.70;14.00
79760;DHT22;70512;42.122;24.732;2023-07-13T14:06:32;51.90;14.30
79760;DHT22;70512;42.122;24.732;2023-07-13T14:09:04;53.00;13.70
79760;DHT22;70512;42.122;24.732;2023-07-13T14:11:32;54.00;13.30
79760;DHT22;70512;42.122;24.732;2023-07-13T14:13:59;54.80;12.90
79760;DHT22;70512;42.122;24.732;2023-07-13T14:16:29;55.40;12.30
79760;DHT22;70512;42.122;24.732;2023-07-13T14:18:57;56.00;12.20
79760;DHT22;70512;42.122;24.732;2023-07-13T14:21:27;56.50;12.10
79760;DHT22;70512;42.122;24.732;2023-07-13T14:23:53;56.80;11.90
79760;DHT22;70512;42.122;24.732;2023-07-13T14:26:21;57.20;11.70
79760;DHT22;70512;42.122;24.732;2023-07-13T14:28:49;57.50;11.50
79760;DHT22;70512;42.122;24.732;2023-07-13T14:31:17;57.40;11.30
79760;DHT22;70512;42.122;24.732;2023-07-13T14:33:44;57.50;11.40
79760;DHT22;70512;42.122;24.732;2023-07-13T14:36:21;57.70;11.40
79760;DHT22;70512;42.122;24.732;2023-07-13T14:38:41;57.70;11.50
79760;DHT22;70512;42.122;24.732;2023-07-13T14:41:08;57.70;11.90
79760;DHT22;70512;42.122;24.732;2023-07-13T14:43:35;57.50;11.60
79760;DHT22;70512;42.122;24.732;2023-07-13T14:46:02;57.50;11.50
79760;DHT22;70512;42.122;24.732;2023-07-13T14:48:30;57.70;11.40
79760;DHT22;70512;42.122;24.732;2023-07-13T14:50:57;57.70;11.40
79760;DHT22;70512;42.122;24.732;2023-07-13T14:53:27;57.20;11.10
79760;DHT22;70512;42.122;24.732;2023-07-13T14:55:54;56.80;11.20
79760;DHT22;70512;42.122;24.732;2023-07-13T14:58:21;56.60;11.40
79760;DHT22;70512;42.122;24.732;2023-07-13T15:00:48;56.00;11.50
79760;DHT22;70512;42.122;24.732;2023-07-13T15:03:20;55.50;11.70
79760;DHT22;70512;42.122;24.732;2023-07-13T15:05:47;55.30;11.80
79760;DHT22;70512;42.122;24.732;2023-07-13T15:08:14;55.20;11.90
79760;DHT22;70512;42.122;24.732;2023-07-13T15:10:41;55.20;11.90
79760;DHT22;70512;42.122;24.732;2023-07-13T15:13:18;55.30;12.00
79760;DHT22;70512;42.122;24.732;2023-07-13T15:15:46;55.50;12.10
79760;DHT22;70512;42.122;24.732;2023-07-13T15:18:14;55.30;11.80
79760;DHT22;70512;42.122;24.732;2023-07-13T15:20:43;55.20;11.70
79760;DHT22;70512;42.122;24.732;2023-07-13T15:23:14;54.90;11.90
79760;DHT22;70512;42.122;24.732;2023-07-13T15:25:42;54.80;12.00
79760;DHT22;70512;42.122;24.732;2023-07-13T15:28:09;54.90;12.10
79760;DHT22;70512;42.122;24.732;2023-07-13T15:35:40;54.40;12.10
79760;DHT22;70512;42.122;24.732;2023-07-13T15:38:19;54.00;12.40
79760;DHT22;70512;42.122;24.732;2023-07-13T15:40:36;53.10;12.80
79760;DHT22;70512;42.122;24.732;2023-07-13T15:43:04;51.90;13.40
79760;DHT22;70512;42.122;24.732;2023-07-13T15:45:31;50.80;14.10
79760;DHT22;70512;42.122;24.732;2023-07-13T15:47:58;49.90;14.70